createdAt,value
2022-09-14T00:05:11.933Z,1007.6
2022-09-14T00:10:55.416Z,1007.6
2022-09-14T00:16:36.089Z,1007.6
2022-09-14T00:22:16.314Z,0
2022-09-14T00:27:57.150Z,1007.4
2022-09-14T00:33:37.329Z,1007.5
2022-09-14T00:39:17.559Z,1007.5
2022-09-14T00:44:58.142Z,1007.3
2022-09-14T00:50:38.541Z,1007.2
2022-09-14T00:56:19.068Z,1007
2022-09-14T01:01:59.715Z,1006.9
2022-09-14T01:07:40.725Z,1006.8
2022-09-14T01:13:20.922Z,1006.9
2022-09-14T01:19:01.261Z,1007
2022-09-14T01:24:42.079Z,1007
2022-09-14T01:30:22.357Z,1007.1
2022-09-14T01:36:03.015Z,1007.2
2022-09-14T01:41:43.628Z,1007.2
2022-09-14T01:47:23.857Z,1007.4
2022-09-14T01:53:04.510Z,1007.2
2022-09-14T01:58:44.620Z,1007.2
2022-09-14T02:04:24.814Z,1007.1
2022-09-14T02:10:05.445Z,1006.9
2022-09-14T02:15:45.984Z,1006.7
2022-09-14T02:21:26.380Z,1006.6
2022-09-14T02:27:06.628Z,1006.5
2022-09-14T02:32:47.049Z,1006.5
2022-09-14T02:38:27.347Z,1006.4
2022-09-14T02:44:08.068Z,1006.4
2022-09-14T02:49:48.435Z,1006.3
2022-09-14T02:55:28.444Z,1006.2
2022-09-14T03:01:09.080Z,1006.2
2022-09-14T03:06:49.947Z,1006.2
2022-09-14T03:12:30.378Z,1006.2
2022-09-14T03:18:14.955Z,1006.2
2022-09-14T03:23:55.866Z,1006
2022-09-14T03:37:06.290Z,1006
2022-09-14T03:42:46.490Z,1005.9
2022-09-14T03:48:26.424Z,1005.8
2022-09-14T03:54:06.911Z,1005.7
2022-09-14T03:59:48.144Z,1005.6
2022-09-14T04:05:28.388Z,1005.6
2022-09-14T04:11:08.696Z,1005.6
2022-09-14T04:16:49.155Z,1005.5
2022-09-14T04:22:29.259Z,1005.6
2022-09-14T04:28:21.305Z,1005.6
2022-09-14T04:34:03.566Z,1005.6
2022-09-14T04:39:44.123Z,1005.5
2022-09-14T04:45:24.774Z,1005.5
2022-09-14T04:51:05.569Z,1005.5
2022-09-14T04:56:45.738Z,1005.5
2022-09-14T05:02:26.420Z,1005.5
2022-09-14T05:08:06.874Z,1005.5
2022-09-14T05:13:50.690Z,1005.5
2022-09-14T05:19:31.081Z,1005.5
2022-09-14T05:25:11.759Z,1005.5
2022-09-14T05:30:52.256Z,1005.5
2022-09-14T05:36:33.111Z,1005.5
2022-09-14T05:42:13.514Z,1005.4
2022-09-14T05:47:53.700Z,1005.4
2022-09-14T05:53:33.915Z,1005.4
2022-09-14T05:59:14.053Z,1005.5
2022-09-14T06:04:54.673Z,1005.4
2022-09-14T06:10:36.179Z,1005.5
2022-09-14T06:16:16.727Z,1005.6
2022-09-14T06:21:56.911Z,1005.6
2022-09-14T06:27:39.706Z,1005.5
2022-09-14T06:33:20.131Z,1005.4
2022-09-14T06:39:00.304Z,1005.4
2022-09-14T06:44:40.929Z,1005.4
2022-09-14T06:50:21.227Z,1005.2
2022-09-14T06:56:01.304Z,1005.3
2022-09-14T07:01:41.661Z,1005.3
2022-09-14T07:07:25.110Z,1005.3
2022-09-14T07:13:05.494Z,1005.2
2022-09-14T07:18:45.963Z,1005.3
2022-09-14T07:24:26.630Z,1005.3
2022-09-14T07:30:06.705Z,1005.3
2022-09-14T07:35:47.062Z,1005.4
2022-09-14T07:41:27.172Z,1005.3
2022-09-14T07:47:07.474Z,1005.3
2022-09-14T07:52:50.735Z,1005.4
2022-09-14T07:58:31.096Z,1005.4
2022-09-14T08:04:11.312Z,1005.3
2022-09-14T08:09:51.892Z,1005.3
2022-09-14T08:15:32.203Z,1005.3
2022-09-14T08:21:12.330Z,1005.2
2022-09-14T08:26:52.924Z,1005.2
2022-09-14T08:32:33.511Z,1005.3
2022-09-14T08:38:13.756Z,1005.3
2022-09-14T08:43:53.745Z,1005.3
2022-09-14T08:49:34.133Z,1005.3
2022-09-14T08:55:14.316Z,1005.3
2022-09-14T09:00:54.996Z,1005.4
2022-09-14T09:06:36.176Z,1005.3
2022-09-14T09:12:16.462Z,1005.4
2022-09-14T09:17:56.865Z,1005.3
2022-09-14T09:23:37.188Z,1005.4
2022-09-14T09:29:17.640Z,1005.4
2022-09-14T09:34:57.834Z,1005.4
2022-09-14T09:40:41.626Z,1005.3
2022-09-14T09:46:21.665Z,0
2022-09-14T09:52:06.619Z,1285.8
2022-09-14T09:57:47.634Z,1005.2
2022-09-14T10:03:28.074Z,1005
2022-09-14T10:09:08.405Z,1005
2022-09-14T10:14:49.413Z,1005
2022-09-14T10:20:30.032Z,1004.9
2022-09-14T10:26:10.804Z,1005
2022-09-14T10:32:08.941Z,1004.9
2022-09-14T10:37:49.560Z,1004.9
2022-09-14T10:43:29.790Z,1004.8
2022-09-14T10:49:13.601Z,1004.8
2022-09-14T10:54:55.069Z,1004.6
2022-09-14T11:00:35.713Z,1004.6
2022-09-14T11:06:16.155Z,1004.6
2022-09-14T11:11:56.276Z,1004.6
2022-09-14T11:17:36.738Z,1004.5
2022-09-14T11:23:16.953Z,1004.4
2022-09-14T11:28:57.618Z,1004.5
2022-09-14T11:34:37.728Z,1004.4
2022-09-14T11:40:18.570Z,1004.5
2022-09-14T11:45:59.846Z,1004.5
2022-09-14T11:51:40.936Z,1004.6
2022-09-14T11:57:22.200Z,1004.7
2022-09-14T12:03:03.160Z,1004.7
2022-09-14T12:08:44.104Z,1004.7
2022-09-14T12:14:24.656Z,1004.7
2022-09-14T12:20:06.219Z,1004.6
2022-09-14T12:25:46.675Z,1004.5
2022-09-14T12:31:31.511Z,1004.5
2022-09-14T12:37:12.619Z,1004.5
2022-09-14T12:42:53.403Z,1004.4
2022-09-14T12:48:34.070Z,1004.3
2022-09-14T12:54:14.407Z,1004.3
2022-09-14T12:59:54.929Z,1004.3
2022-09-14T13:05:35.670Z,1004.3
2022-09-14T13:11:16.296Z,1004.2
2022-09-14T13:16:56.522Z,1004.2
2022-09-14T13:22:36.785Z,1004.3
2022-09-14T13:28:17.170Z,1004.4
2022-09-14T13:33:57.520Z,1004.4
2022-09-14T13:39:37.782Z,1004.3
2022-09-14T13:45:17.981Z,1004.2
2022-09-14T13:51:07.331Z,1004.1
2022-09-14T13:56:48.269Z,1003.9
2022-09-14T14:02:28.967Z,1003.9
2022-09-14T14:08:09.874Z,1003.7
2022-09-14T14:13:56.216Z,1003.9
2022-09-14T14:19:39.505Z,1003.7
2022-09-14T14:25:19.983Z,1003.8
2022-09-14T14:31:09.060Z,1003.9
2022-09-14T14:36:49.474Z,1003.9
2022-09-14T14:42:30.398Z,1003.9
2022-09-14T14:48:10.821Z,1003.7
2022-09-14T14:53:57.317Z,1003.8
2022-09-14T14:59:37.662Z,1003.7
2022-09-14T15:05:20.594Z,0
2022-09-14T15:11:06.969Z,0
2022-09-14T15:16:47.641Z,0
2022-09-14T15:22:28.541Z,0
2022-09-14T15:28:08.588Z,0
2022-09-14T15:33:48.503Z,0
2022-09-14T15:39:28.238Z,0
2022-09-14T15:45:08.705Z,0
2022-09-14T15:50:48.837Z,0
2022-09-14T15:56:29.235Z,0
2022-09-14T16:02:09.642Z,0
2022-09-14T16:07:52.921Z,0
2022-09-14T16:13:33.191Z,0
2022-09-14T16:19:13.008Z,0
2022-09-14T16:24:53.106Z,0
2022-09-14T16:30:32.682Z,0
2022-09-14T16:36:18.915Z,0
2022-09-14T16:41:58.965Z,0
2022-09-14T16:47:39.168Z,0
2022-09-14T16:53:19.194Z,0
2022-09-14T16:59:02.464Z,0
2022-09-14T17:04:42.642Z,0
2022-09-14T17:10:22.372Z,0
2022-09-14T17:16:02.854Z,0
2022-09-14T17:21:44.428Z,0
2022-09-14T17:27:24.432Z,0
2022-09-14T17:33:04.338Z,0
2022-09-14T17:38:46.741Z,0
2022-09-14T17:44:26.726Z,0
2022-09-14T17:50:06.727Z,0
2022-09-14T17:55:46.324Z,0
2022-09-14T18:01:27.004Z,0
2022-09-14T18:07:08.041Z,1004.7
2022-09-14T18:12:48.389Z,1004.7
2022-09-14T18:18:28.616Z,1004.7
2022-09-14T18:24:15.391Z,1212.3
2022-09-14T18:29:58.370Z,1004.8
2022-09-14T18:35:49.271Z,1005
2022-09-14T18:41:33.337Z,1005
2022-09-14T18:47:16.798Z,1005.1
2022-09-14T18:52:56.912Z,1005.1
2022-09-14T18:58:37.487Z,1005.1
2022-09-14T19:04:18.106Z,1005.1
2022-09-14T19:10:01.478Z,1005
2022-09-14T19:15:42.285Z,1005
2022-09-14T19:21:24.449Z,1005
2022-09-14T19:27:04.797Z,1005.1
2022-09-14T19:32:44.977Z,1005.2
2022-09-14T19:38:28.754Z,1005.2
2022-09-14T19:44:09.390Z,1005.2
2022-09-14T19:49:49.669Z,1005.2
2022-09-14T19:55:29.720Z,1005.1
2022-09-14T20:01:10.355Z,1005.3
2022-09-14T20:06:54.493Z,1005.3
2022-09-14T20:12:35.220Z,1005.3
2022-09-14T20:18:15.443Z,1005.3
2022-09-14T20:24:18.014Z,1005.4
2022-09-14T20:30:00.499Z,1005.4
2022-09-14T20:35:40.651Z,1005.5
2022-09-14T20:41:21.024Z,1005.5
2022-09-14T20:47:02.209Z,1005.6
2022-09-14T20:52:43.005Z,1005.5
2022-09-14T20:58:23.948Z,1005.6
2022-09-14T21:04:04.706Z,1005.5
2022-09-14T21:09:45.081Z,1005.6
2022-09-14T21:15:35.870Z,1005.7
2022-09-14T21:21:51.707Z,1005.7
2022-09-14T21:27:52.676Z,1005.6
2022-09-14T21:33:39.979Z,1005.8
2022-09-14T21:39:23.805Z,1005.8
2022-09-14T21:45:05.707Z,1005.9
2022-09-14T22:07:49.181Z,1005.8
2022-09-14T22:13:30.270Z,1005.8
2022-09-14T22:19:14.417Z,1005.9
2022-09-14T22:44:15.197Z,1007.7
2022-09-14T22:49:54.898Z,1007.8
2022-09-14T22:55:35.100Z,1006.9
2022-09-14T23:01:15.838Z,1006.5
2022-09-14T23:06:56.795Z,1006.5
2022-09-14T23:12:37.071Z,1006.5
2022-09-14T23:18:17.686Z,1006.6
2022-09-14T23:23:57.791Z,1006.5
2022-09-14T23:29:38.884Z,1006.5
2022-09-14T23:35:19.549Z,1006.4
2022-09-14T23:40:59.779Z,1006.4
2022-09-14T23:46:40.227Z,1006.5
2022-09-14T23:52:21.345Z,1006.5
2022-09-14T23:58:01.739Z,1006.4
